createdAt,value
2022-07-29T10:09:54.254Z,41.70
2022-07-29T10:13:56.895Z,41.71
2022-07-29T10:18:01.762Z,41.73
2022-07-29T10:22:09.223Z,41.90
2022-07-29T10:26:13.424Z,42.56
2022-07-29T10:30:17.351Z,43.85
2022-07-29T10:34:31.114Z,44.67
2022-07-29T10:38:54.797Z,45.18
2022-07-29T10:43:04.785Z,45.38
2022-07-29T10:47:07.880Z,45.70
2022-07-29T10:51:10.304Z,45.88
2022-07-29T10:55:34.089Z,46.22
2022-07-29T10:59:39.953Z,45.70
2022-07-29T11:03:49.578Z,45.42
2022-07-29T11:08:26.343Z,44.84
2022-07-29T11:12:49.242Z,45.07
2022-07-29T11:17:07.363Z,44.78
2022-07-29T11:21:55.273Z,45.15
2022-07-29T11:26:21.074Z,44.01
2022-07-29T11:30:49.475Z,44.28
2022-07-29T11:35:17.157Z,44.60
2022-07-29T11:39:36.315Z,44.37
2022-07-29T11:43:50.805Z,43.40
2022-07-29T11:48:27.911Z,43.50
2022-07-29T11:52:38.242Z,42.27
2022-07-29T11:56:53.588Z,41.48
2022-07-29T12:00:56.752Z,40.65
2022-07-29T12:05:00.507Z,39.60
2022-07-29T12:09:14.672Z,39.19
2022-07-29T12:13:18.692Z,39.12
2022-07-29T12:17:30.553Z,37.59
2022-07-29T12:21:54.014Z,36.74
2022-07-29T12:26:01.200Z,35.18
2022-07-29T12:30:07.768Z,35.35
2022-07-29T12:34:10.929Z,33.89
2022-07-29T12:38:15.004Z,34.88
2022-07-29T12:42:19.165Z,34.00
2022-07-29T12:46:21.826Z,34.65
2022-07-29T12:50:26.515Z,35.09
2022-07-29T12:54:29.235Z,35.99
2022-07-29T12:58:34.018Z,36.44
2022-07-29T13:02:37.568Z,35.59
2022-07-29T13:06:45.707Z,34.86
2022-07-29T13:10:48.804Z,34.26
2022-07-29T13:14:52.582Z,34.13
2022-07-29T13:19:13.928Z,34.22
2022-07-29T13:23:17.339Z,34.04
2022-07-29T13:27:21.540Z,34.01
2022-07-29T13:31:25.587Z,33.93
2022-07-29T13:35:30.587Z,33.61
2022-07-29T13:39:33.204Z,33.37
2022-07-29T13:43:35.746Z,33.53
2022-07-29T13:47:40.460Z,33.67
2022-07-29T13:51:45.234Z,33.73
2022-07-29T13:55:47.762Z,34.16
2022-07-29T13:59:54.131Z,33.29
2022-07-29T14:03:58.554Z,33.27
2022-07-29T14:08:01.070Z,33.19
2022-07-29T14:12:04.379Z,33.20
2022-07-29T14:16:07.946Z,33.70
2022-07-29T14:20:12.194Z,33.15
2022-07-29T14:24:21.524Z,33.86
2022-07-29T14:28:25.714Z,34.31
2022-07-29T14:32:28.241Z,33.88
2022-07-29T14:36:32.105Z,33.42
2022-07-29T14:40:34.656Z,32.99
2022-07-29T14:44:37.185Z,32.51
2022-07-29T14:48:39.762Z,32.48
2022-07-29T14:52:43.981Z,32.60
2022-07-29T14:56:47.577Z,32.79
2022-07-29T15:00:50.483Z,32.55
2022-07-29T15:04:53.250Z,32.40
2022-07-29T15:08:57.139Z,32.78
2022-07-29T15:12:59.708Z,32.87
2022-07-29T15:17:02.236Z,33.03
2022-07-29T15:21:08.522Z,32.99
2022-07-29T15:25:12.672Z,33.27
2022-07-29T15:29:15.428Z,33.52
2022-07-29T15:33:18.731Z,33.39
2022-07-29T15:37:21.283Z,33.28
2022-07-29T15:41:25.159Z,32.98
2022-07-29T15:45:31.648Z,32.45
2022-07-29T15:49:48.757Z,32.58
2022-07-29T15:53:53.661Z,32.17
2022-07-29T15:58:00.614Z,32.21
2022-07-29T16:02:04.104Z,31.60
2022-07-29T16:06:07.325Z,30.75
2022-07-29T16:10:10.116Z,30.20
2022-07-29T16:14:14.001Z,29.75
2022-07-29T16:18:16.565Z,29.36
2022-07-29T16:22:19.097Z,29.53
2022-07-29T16:26:21.667Z,28.93
2022-07-29T16:30:25.566Z,29.11
2022-07-29T16:34:28.102Z,29.46
2022-07-29T16:38:30.657Z,30.40
2022-07-29T16:42:48.654Z,31.38
2022-07-29T16:46:52.527Z,32.36
2022-07-29T16:50:58.584Z,32.64
2022-07-29T16:55:01.161Z,33.12
2022-07-29T16:59:03.753Z,33.63
2022-07-29T17:03:07.638Z,33.59
2022-07-29T17:07:10.144Z,33.93
2022-07-29T17:11:12.562Z,34.31
2022-07-29T17:15:16.671Z,34.83
2022-07-29T17:19:20.603Z,35.29
2022-07-29T17:23:24.203Z,35.52
2022-07-29T17:27:26.612Z,35.43
2022-07-29T17:31:29.171Z,35.67
2022-07-29T17:35:50.303Z,35.44
2022-07-29T17:39:55.261Z,35.78
2022-07-29T17:44:01.394Z,35.50
2022-07-29T17:48:03.960Z,35.70
2022-07-29T17:52:07.828Z,35.98
2022-07-29T17:56:10.686Z,36.67
2022-07-29T18:00:13.823Z,36.53
2022-07-29T18:04:20.107Z,36.60
2022-07-29T18:08:24.022Z,36.80
2022-07-29T18:12:26.545Z,37.25
2022-07-29T18:16:29.360Z,37.18
2022-07-29T18:20:32.019Z,37.47
2022-07-29T18:24:35.787Z,37.77
2022-07-29T18:28:38.315Z,37.85
2022-07-29T18:32:54.308Z,38.03
2022-07-29T18:37:05.145Z,38.13
2022-07-29T18:41:09.164Z,38.70
2022-07-29T18:45:12.238Z,39.07
2022-07-29T18:49:22.601Z,39.42
2022-07-29T18:53:25.231Z,39.50
2022-07-29T18:57:55.979Z,40.09
2022-07-29T19:01:52.393Z,40.43
2022-07-29T19:05:55.108Z,40.83
2022-07-29T19:09:57.675Z,40.99
2022-07-29T19:14:01.594Z,41.19
2022-07-29T19:18:04.411Z,41.49
2022-07-29T19:22:06.836Z,41.67
2022-07-29T19:26:09.425Z,41.55
2022-07-29T19:30:14.132Z,41.83
2022-07-29T19:34:16.697Z,42.04
2022-07-29T19:38:19.276Z,41.71
2022-07-29T19:42:21.819Z,42.50
2022-07-29T19:46:28.719Z,43.41
2022-07-29T19:50:31.635Z,42.64
2022-07-29T19:54:34.037Z,42.88
2022-07-29T19:58:37.041Z,43.32
2022-07-29T20:02:41.703Z,43.08
2022-07-29T20:06:44.403Z,42.92
2022-07-29T20:10:47.023Z,43.14
2022-07-29T20:14:49.950Z,43.23
2022-07-29T20:18:53.708Z,42.76
2022-07-29T20:22:56.376Z,42.53
2022-07-29T20:26:59.203Z,43.54
2022-07-29T20:31:02.008Z,45.72
2022-07-29T20:35:06.728Z,46.03
2022-07-29T20:39:09.288Z,45.99
2022-07-29T20:43:11.832Z,45.33
2022-07-29T20:47:14.392Z,45.66
2022-07-29T20:51:18.464Z,45.82
2022-07-29T20:55:21.312Z,46.03
2022-07-29T20:59:23.714Z,46.31
2022-07-29T21:03:26.239Z,46.62
2022-07-29T21:07:30.173Z,46.78
2022-07-29T21:11:43.602Z,47.44
2022-07-29T21:15:49.644Z,48.73
2022-07-29T21:19:53.242Z,49.30
2022-07-29T21:23:57.153Z,49.60
2022-07-29T21:28:17.248Z,50.81
2022-07-29T21:32:30.035Z,52.48
2022-07-29T21:36:49.094Z,54.23
2022-07-29T21:40:53.466Z,54.58
2022-07-29T21:44:56.020Z,55.55
2022-07-29T21:48:58.615Z,55.81
2022-07-29T21:53:01.525Z,56.46
2022-07-29T21:57:05.744Z,56.91
2022-07-29T22:01:08.460Z,57.11
2022-07-29T22:05:11.960Z,57.01
2022-07-29T22:09:14.479Z,57.79
2022-07-29T22:13:18.372Z,57.99
2022-07-29T22:17:20.931Z,58.72
2022-07-29T22:21:23.580Z,58.90
2022-07-29T22:25:26.211Z,59.38
2022-07-29T22:29:30.139Z,59.50
2022-07-29T22:33:32.672Z,59.49
2022-07-29T22:37:35.278Z,59.71
2022-07-29T22:41:37.828Z,59.71
2022-07-29T22:45:42.311Z,59.75
2022-07-29T22:49:44.889Z,59.88
2022-07-29T22:53:47.708Z,59.97
2022-07-29T22:57:50.243Z,60.25
2022-07-29T23:01:54.471Z,60.75
2022-07-29T23:05:57.115Z,61.20
2022-07-29T23:09:59.652Z,61.03
2022-07-29T23:14:02.240Z,61.17
2022-07-29T23:18:06.267Z,61.51
2022-07-29T23:22:08.815Z,61.88
2022-07-29T23:26:12.388Z,62.05
2022-07-29T23:30:15.093Z,62.12
2022-07-29T23:34:18.976Z,62.50
2022-07-29T23:38:21.529Z,63.34
2022-07-29T23:42:24.051Z,64.16
2022-07-29T23:46:26.661Z,64.58
2022-07-29T23:50:30.732Z,64.41
2022-07-29T23:54:33.371Z,64.63
2022-07-29T23:58:35.940Z,64.97
